< < Back
Terminal Aerodrome Forecast


Current Version              Previous Versions:   1  2  3  4  5  6  7  8  9  

Terminal Aerodrome Forecast

409
FTUS44 KMOB 011100
TAFMOB
TAF
KMOB 011127Z 0112/0212 35004KT P6SM FEW060 BKN120 OVC250
     FM011700 32005KT P6SM VCTS BKN050CB BKN120
     FM020300 36002KT P6SM SCT050 OVC250=

Latest METAR

976
SAUS80 KWBC 011600 RRJ
MTRMOB
METAR KMOB 011556Z 00000KT 7SM FEW050 BKN110 OVC150 27/21 A3003 RMK AO2
RAB24E33 SLP167 P0000 T02670206


USA.gov is the U.S. government's official web portal to all federal, state and local government web resources and services.